createdAt,value
2022-08-16T00:01:59.909Z,1.58
2022-08-16T00:04:40.107Z,1.27
2022-08-16T00:07:12.301Z,1.23
2022-08-16T00:09:41.895Z,1.42
2022-08-16T00:12:11.649Z,1.15
2022-08-16T00:14:47.313Z,1.42
2022-08-16T00:17:18.945Z,1.40
2022-08-16T00:19:53.369Z,1.52
2022-08-16T00:22:27.920Z,1.17
2022-08-16T00:24:57.647Z,1.25
2022-08-16T00:27:27.544Z,1.17
2022-08-16T00:30:19.083Z,1.30
2022-08-16T00:32:52.806Z,1.42
2022-08-16T00:35:30.764Z,1.10
2022-08-16T00:38:41.092Z,1.35
2022-08-16T00:40:57.479Z,1.35
2022-08-16T00:43:43.274Z,1.58
2022-08-16T00:46:34.299Z,1.27
2022-08-16T00:49:17.657Z,1.20
2022-08-16T00:51:54.902Z,0.90
2022-08-16T00:54:27.847Z,1.00
2022-08-16T00:57:00.478Z,1.00
2022-08-16T00:59:34.282Z,1.20
2022-08-16T01:02:30.072Z,1.02
2022-08-16T01:05:10.311Z,1.20
2022-08-16T01:07:51.965Z,1.20
2022-08-16T01:10:32.852Z,0.98
2022-08-16T01:13:33.122Z,1.15
2022-08-16T01:16:20.256Z,1.00
2022-08-16T01:19:19.235Z,1.08
2022-08-16T01:22:47.408Z,1.17
2022-08-16T01:24:55.396Z,0.80
2022-08-16T01:27:34.510Z,1.10
2022-08-16T01:30:19.248Z,1.27
2022-08-16T01:33:01.580Z,1.30
2022-08-16T01:35:37.049Z,0.90
2022-08-16T01:38:28.073Z,1.17
2022-08-16T01:41:05.769Z,1.20
2022-08-16T01:43:38.860Z,1.20
2022-08-16T01:46:37.732Z,1.13
2022-08-16T01:49:19.476Z,1.40
2022-08-16T01:51:54.911Z,0.90
2022-08-16T01:54:34.702Z,1.20
2022-08-16T01:57:09.648Z,1.17
2022-08-16T01:59:42.582Z,1.15
2022-08-16T02:02:26.768Z,1.10
2022-08-16T02:05:00.968Z,1.33
2022-08-16T02:07:32.272Z,1.25
2022-08-16T02:10:02.166Z,0.93
2022-08-16T02:12:52.156Z,0.85
2022-08-16T02:15:40.281Z,1.05
2022-08-16T02:18:13.469Z,1.27
2022-08-16T02:20:53.535Z,1.03
2022-08-16T02:23:24.563Z,1.40
2022-08-16T02:25:54.811Z,1.05
2022-08-16T02:28:32.698Z,0.93
2022-08-16T02:31:08.146Z,1.08
2022-08-16T02:33:43.572Z,1.00
2022-08-16T02:36:48.070Z,1.10
2022-08-16T02:39:26.904Z,1.10
2022-08-16T02:42:00.135Z,1.10
2022-08-16T02:44:29.453Z,1.10
2022-08-16T02:46:59.084Z,1.00
2022-08-16T02:49:59.269Z,1.10
2022-08-16T02:52:24.722Z,1.00
2022-08-16T02:55:04.185Z,1.20
2022-08-16T02:57:34.310Z,1.40
2022-08-16T03:00:33.799Z,1.00
2022-08-16T03:02:58.102Z,1.10
2022-08-16T03:05:30.866Z,1.00
2022-08-16T03:08:03.145Z,1.42
2022-08-16T03:10:39.116Z,1.10
2022-08-16T03:13:12.536Z,1.35
2022-08-16T03:15:45.968Z,1.25
2022-08-16T03:18:34.438Z,1.30
2022-08-16T03:21:10.435Z,1.40
2022-08-16T03:23:43.839Z,1.15
2022-08-16T03:26:14.916Z,1.40
2022-08-16T03:28:47.723Z,1.40
2022-08-16T03:31:18.594Z,1.30
2022-08-16T03:33:47.784Z,1.40
2022-08-16T03:36:31.168Z,1.27
2022-08-16T03:39:14.852Z,1.40
2022-08-16T03:41:50.063Z,1.13
2022-08-16T03:44:43.526Z,1.35
2022-08-16T03:47:13.419Z,1.00
2022-08-16T03:49:52.892Z,1.10
2022-08-16T03:52:29.962Z,1.20
2022-08-16T03:55:05.444Z,1.27
2022-08-16T03:57:40.534Z,1.10
2022-08-16T04:00:20.433Z,1.20
2022-08-16T04:03:10.359Z,1.50
2022-08-16T04:05:54.047Z,1.13
2022-08-16T04:08:27.020Z,1.08
2022-08-16T04:11:02.008Z,1.20
2022-08-16T04:14:00.960Z,1.30
2022-08-16T04:16:27.292Z,1.33
2022-08-16T04:19:06.353Z,1.17
2022-08-16T04:21:46.035Z,1.50
2022-08-16T04:24:22.074Z,1.50
2022-08-16T04:26:59.064Z,1.60
2022-08-16T04:29:46.170Z,1.33
2022-08-16T04:32:18.060Z,1.60
2022-08-16T04:34:53.367Z,1.40
2022-08-16T04:37:22.824Z,1.25
2022-08-16T04:39:58.341Z,1.42
2022-08-16T04:42:29.810Z,1.52
2022-08-16T04:45:05.557Z,1.40
2022-08-16T04:47:36.673Z,1.40
2022-08-16T04:50:23.864Z,1.40
2022-08-16T04:53:03.110Z,1.13
2022-08-16T04:55:38.122Z,1.00
2022-08-16T04:58:45.902Z,1.30
2022-08-16T05:01:01.555Z,1.48
2022-08-16T05:03:33.307Z,1.40
2022-08-16T05:06:05.020Z,1.27
2022-08-16T05:08:36.596Z,1.23
2022-08-16T05:11:14.867Z,1.40
2022-08-16T05:13:47.988Z,1.45
2022-08-16T05:16:30.018Z,1.30
2022-08-16T05:19:16.295Z,1.60
2022-08-16T05:22:05.786Z,1.40
2022-08-16T05:24:38.968Z,1.30
2022-08-16T05:27:11.071Z,1.25
2022-08-16T05:30:00.082Z,1.17
2022-08-16T05:32:39.483Z,1.20
2022-08-16T05:35:17.215Z,0.80
2022-08-16T05:38:30.941Z,1.88
2022-08-16T05:41:02.317Z,1.38
2022-08-16T05:43:43.702Z,1.27
2022-08-16T05:46:30.300Z,1.10
2022-08-16T05:49:10.727Z,1.02
2022-08-16T05:51:45.770Z,1.00
2022-08-16T05:54:24.741Z,1.00
2022-08-16T05:56:58.070Z,0.77
2022-08-16T05:59:30.731Z,0.80
2022-08-16T06:02:00.364Z,0.93
2022-08-16T06:04:35.875Z,1.10
2022-08-16T06:07:24.896Z,1.10
2022-08-16T06:10:10.542Z,0.80
2022-08-16T06:12:40.722Z,0.90
2022-08-16T06:15:16.602Z,1.10
2022-08-16T06:17:47.427Z,0.93
2022-08-16T06:20:34.877Z,1.10
2022-08-16T06:23:24.885Z,1.00
2022-08-16T06:25:59.809Z,1.38
2022-08-16T06:28:36.126Z,1.95
2022-08-16T06:31:12.464Z,1.60
2022-08-16T06:33:45.660Z,1.33
2022-08-16T06:36:17.699Z,1.42
2022-08-16T06:38:57.410Z,1.00
2022-08-16T06:41:40.231Z,1.02
2022-08-16T06:44:20.918Z,1.10
2022-08-16T06:46:56.371Z,0.93
2022-08-16T06:49:26.429Z,0.98
2022-08-16T06:52:02.627Z,0.90
2022-08-16T06:54:37.686Z,1.02
2022-08-16T06:57:16.483Z,1.00
2022-08-16T06:59:52.314Z,1.30
2022-08-16T07:02:34.167Z,1.00
2022-08-16T07:05:14.962Z,0.80
2022-08-16T07:07:54.106Z,0.80
2022-08-16T07:10:27.998Z,0.70
2022-08-16T07:13:03.910Z,0.98
2022-08-16T07:15:50.070Z,0.50
2022-08-16T07:18:25.549Z,0.70
2022-08-16T07:20:59.950Z,0.75
2022-08-16T07:23:36.961Z,0.68
2022-08-16T07:26:25.284Z,0.70
2022-08-16T07:28:58.526Z,0.70
2022-08-16T07:31:37.622Z,0.77
2022-08-16T07:34:12.645Z,0.77
2022-08-16T07:36:42.504Z,0.70
2022-08-16T07:39:15.787Z,0.80
2022-08-16T07:41:47.100Z,0.90
2022-08-16T07:44:17.223Z,0.95
2022-08-16T07:46:55.594Z,1.10
2022-08-16T07:49:26.586Z,1.20
2022-08-16T07:52:20.166Z,1.40
2022-08-16T07:54:53.323Z,1.63
2022-08-16T07:57:24.779Z,2.70
2022-08-16T07:59:57.404Z,2.10
2022-08-16T08:02:27.272Z,2.30
2022-08-16T08:04:59.472Z,2.10
2022-08-16T08:07:33.314Z,2.05
2022-08-16T08:10:11.097Z,1.70
2022-08-16T08:12:41.669Z,1.60
2022-08-16T08:15:15.034Z,1.40
2022-08-16T08:17:55.632Z,1.23
2022-08-16T08:20:35.306Z,0.82
2022-08-16T08:23:09.236Z,1.60
2022-08-16T08:25:54.102Z,1.55
2022-08-16T08:28:28.111Z,1.20
2022-08-16T08:31:04.498Z,1.35
2022-08-16T08:33:39.969Z,1.90
2022-08-16T08:36:22.312Z,1.40
2022-08-16T08:38:56.086Z,1.52
2022-08-16T08:41:30.492Z,1.00
2022-08-16T08:44:29.043Z,1.10
2022-08-16T08:47:00.770Z,0.90
2022-08-16T08:49:46.258Z,0.93
2022-08-16T08:52:34.775Z,0.70
2022-08-16T08:55:13.051Z,0.90
2022-08-16T08:57:46.750Z,1.20
2022-08-16T09:00:50.262Z,1.50
2022-08-16T09:03:22.919Z,1.20
2022-08-16T09:05:52.660Z,1.17
2022-08-16T09:08:26.477Z,0.90
2022-08-16T09:11:07.358Z,0.95
2022-08-16T09:13:48.306Z,0.90
2022-08-16T09:17:03.157Z,0.88
2022-08-16T09:21:43.931Z,0.75
2022-08-16T09:24:19.862Z,0.77
2022-08-16T09:27:03.873Z,0.90
2022-08-16T09:29:44.829Z,1.08
2022-08-16T09:32:28.619Z,0.75
2022-08-16T09:35:02.399Z,0.70
2022-08-16T09:37:36.283Z,0.80
2022-08-16T09:40:29.382Z,1.00
2022-08-16T09:42:59.717Z,1.23
2022-08-16T09:45:29.832Z,0.63
2022-08-16T09:47:59.641Z,0.82
2022-08-16T09:50:36.703Z,1.20
2022-08-16T09:53:21.966Z,0.82
2022-08-16T09:55:56.728Z,0.80
2022-08-16T09:58:40.687Z,1.00
2022-08-16T10:01:11.823Z,0.95
2022-08-16T10:04:02.333Z,1.10
2022-08-16T10:06:33.522Z,0.98
2022-08-16T10:09:11.296Z,0.90
2022-08-16T10:12:10.955Z,1.00
2022-08-16T10:14:47.122Z,0.85
2022-08-16T10:17:16.321Z,1.00
2022-08-16T10:19:50.357Z,1.10
2022-08-16T10:22:23.091Z,0.73
2022-08-16T10:24:55.989Z,0.98
2022-08-16T10:27:45.804Z,0.90
2022-08-16T10:30:25.946Z,0.95
2022-08-16T10:32:57.660Z,0.80
2022-08-16T10:35:33.084Z,0.80
2022-08-16T10:38:06.347Z,0.90
2022-08-16T10:40:36.604Z,0.80
2022-08-16T10:43:08.244Z,0.82
2022-08-16T10:45:37.839Z,0.77
2022-08-16T10:48:27.319Z,0.88
2022-08-16T10:50:59.251Z,0.80
2022-08-16T10:53:32.495Z,0.70
2022-08-16T10:56:55.456Z,0.75
2022-08-16T11:07:43.771Z,0.65
2022-08-16T11:11:04.877Z,0.82
2022-08-16T11:15:58.584Z,0.80
2022-08-16T11:19:04.430Z,0.88
2022-08-16T11:21:29.163Z,0.85
2022-08-16T11:23:59.894Z,0.75
2022-08-16T11:26:30.993Z,0.70
2022-08-16T11:29:15.424Z,0.70
2022-08-16T11:31:54.107Z,0.93
2022-08-16T11:34:23.592Z,0.60
2022-08-16T11:37:01.218Z,0.52
2022-08-16T11:39:31.896Z,0.77
2022-08-16T11:42:03.575Z,0.63
2022-08-16T11:44:56.227Z,0.80
2022-08-16T11:47:26.362Z,0.85
2022-08-16T11:49:55.407Z,0.85
2022-08-16T11:52:25.800Z,1.15
2022-08-16T11:55:00.147Z,0.80
2022-08-16T11:57:29.575Z,0.80
2022-08-16T12:00:02.079Z,0.68
2022-08-16T12:02:40.277Z,0.88
2022-08-16T12:05:16.956Z,0.77
2022-08-16T12:07:46.705Z,0.80
2022-08-16T12:10:19.369Z,0.90
2022-08-16T12:12:48.591Z,1.15
2022-08-16T12:15:21.725Z,0.80
2022-08-16T12:17:51.371Z,1.08
2022-08-16T12:20:24.434Z,0.57
2022-08-16T12:22:57.738Z,0.70
2022-08-16T12:25:29.844Z,0.90
2022-08-16T12:27:59.711Z,0.73
2022-08-16T12:30:38.818Z,0.63
2022-08-16T12:33:11.473Z,0.63
2022-08-16T12:35:41.326Z,0.90
2022-08-16T12:38:40.776Z,0.80
2022-08-16T12:41:00.577Z,0.90
2022-08-16T12:43:31.299Z,0.90
2022-08-16T12:46:02.094Z,0.88
2022-08-16T12:48:52.602Z,0.82
2022-08-16T12:51:25.213Z,0.80
2022-08-16T12:54:05.274Z,1.13
2022-08-16T12:56:37.634Z,0.80
2022-08-16T12:59:11.394Z,1.00
2022-08-16T13:01:42.675Z,0.90
2022-08-16T13:04:20.936Z,1.05
2022-08-16T13:06:53.893Z,1.13
2022-08-16T13:09:28.952Z,1.00
2022-08-16T13:12:16.409Z,1.00
2022-08-16T13:14:47.218Z,1.13
2022-08-16T13:17:26.502Z,1.00
2022-08-16T13:20:08.130Z,0.90
2022-08-16T13:22:44.448Z,0.98
2022-08-16T13:25:21.157Z,0.90
2022-08-16T13:28:02.950Z,1.00
2022-08-16T13:30:43.665Z,0.85
2022-08-16T13:33:27.654Z,0.75
2022-08-16T13:36:01.287Z,1.25
2022-08-16T13:38:36.437Z,0.70
2022-08-16T13:41:13.249Z,0.70
2022-08-16T13:43:43.372Z,0.80
2022-08-16T13:46:12.316Z,0.60
2022-08-16T13:48:44.138Z,0.93
2022-08-16T13:51:18.405Z,0.70
2022-08-16T13:53:59.987Z,0.95
2022-08-16T13:56:39.916Z,0.85
2022-08-16T13:59:20.414Z,0.95
2022-08-16T14:01:54.915Z,0.85
2022-08-16T14:04:35.256Z,0.90
2022-08-16T14:07:08.683Z,0.80
2022-08-16T14:09:38.631Z,0.85
2022-08-16T14:12:18.639Z,1.00
2022-08-16T14:14:50.835Z,0.73
2022-08-16T14:17:22.437Z,0.65
2022-08-16T14:19:52.579Z,1.00
2022-08-16T14:22:35.952Z,0.80
2022-08-16T14:25:20.069Z,1.00
2022-08-16T14:27:52.327Z,0.80
2022-08-16T14:30:23.911Z,0.65
2022-08-16T14:32:54.638Z,0.70
2022-08-16T14:35:48.206Z,0.60
2022-08-16T14:38:23.915Z,0.85
2022-08-16T14:40:55.204Z,0.90
2022-08-16T14:43:29.877Z,0.77
2022-08-16T14:46:00.062Z,1.10
2022-08-16T14:48:29.353Z,0.70
2022-08-16T14:50:58.684Z,1.00
2022-08-16T14:53:28.898Z,0.80
2022-08-16T14:56:02.875Z,0.70
2022-08-16T14:58:34.642Z,1.02
2022-08-16T15:01:09.849Z,0.90
2022-08-16T15:03:44.733Z,0.73
2022-08-16T15:06:19.906Z,1.00
2022-08-16T15:08:49.214Z,0.90
2022-08-16T15:11:20.116Z,0.80
2022-08-16T15:13:51.734Z,0.77
2022-08-16T15:16:22.129Z,0.60
2022-08-16T15:19:02.171Z,0.80
2022-08-16T15:21:31.691Z,0.85
2022-08-16T15:24:01.258Z,0.70
2022-08-16T15:26:44.628Z,0.80
2022-08-16T15:29:14.507Z,0.68
2022-08-16T15:31:48.289Z,0.70
2022-08-16T15:34:19.023Z,0.70
2022-08-16T15:36:51.539Z,0.88
2022-08-16T15:39:31.775Z,0.60
2022-08-16T15:42:11.788Z,0.60
2022-08-16T15:44:58.400Z,0.90
2022-08-16T15:47:29.968Z,0.65
2022-08-16T15:49:59.586Z,0.80
2022-08-16T15:52:35.645Z,0.70
2022-08-16T15:55:13.364Z,0.63
2022-08-16T15:57:53.773Z,1.27
2022-08-16T16:00:26.740Z,1.00
2022-08-16T16:03:09.140Z,1.10
2022-08-16T16:05:40.464Z,0.77
2022-08-16T16:08:16.054Z,1.10
2022-08-16T16:10:58.132Z,0.90
2022-08-16T16:13:27.981Z,0.88
2022-08-16T16:16:03.623Z,0.90
2022-08-16T16:21:10.045Z,0.80
2022-08-16T16:23:53.786Z,0.90
2022-08-16T16:26:24.907Z,0.80
2022-08-16T16:29:08.213Z,0.70
2022-08-16T16:31:51.412Z,1.00
2022-08-16T16:34:32.217Z,1.00
2022-08-16T16:37:03.059Z,1.08
2022-08-16T16:39:34.422Z,1.00
2022-08-16T16:42:06.053Z,0.80
2022-08-16T16:44:36.390Z,0.80
2022-08-16T16:47:07.759Z,1.02
2022-08-16T16:49:41.808Z,0.75
2022-08-16T16:52:14.499Z,1.05
2022-08-16T16:55:05.783Z,1.67
2022-08-16T16:57:54.941Z,1.13
2022-08-16T17:00:26.644Z,1.10
2022-08-16T17:02:59.717Z,0.95
2022-08-16T17:05:32.826Z,1.08
2022-08-16T17:08:03.315Z,1.10
2022-08-16T17:10:46.009Z,1.00
2022-08-16T17:13:19.580Z,1.10
2022-08-16T17:15:52.376Z,1.23
2022-08-16T17:19:14.840Z,1.23
2022-08-16T17:21:12.655Z,0.80
2022-08-16T17:23:59.387Z,1.05
2022-08-16T17:26:31.015Z,1.10
2022-08-16T17:31:51.216Z,1.00
2022-08-16T17:34:29.224Z,1.00
2022-08-16T17:37:08.105Z,1.13
2022-08-16T17:39:28.443Z,1.20
2022-08-16T17:39:58.242Z,1.08
2022-08-16T17:42:27.429Z,1.00
2022-08-16T17:44:56.469Z,1.02
2022-08-16T17:47:25.784Z,0.85
2022-08-16T17:49:54.820Z,1.20
2022-08-16T17:52:23.953Z,0.82
2022-08-16T17:54:52.988Z,1.08
2022-08-16T17:57:22.053Z,1.10
2022-08-16T17:59:51.056Z,1.00
2022-08-16T18:02:43.632Z,0.80
2022-08-16T18:05:16.914Z,1.45
2022-08-16T18:07:46.225Z,0.93
2022-08-16T18:10:23.706Z,0.90
2022-08-16T18:13:02.869Z,0.90
2022-08-16T18:15:33.602Z,0.80
2022-08-16T18:18:03.277Z,0.90
2022-08-16T18:20:55.486Z,0.75
2022-08-16T18:23:27.132Z,1.02
2022-08-16T18:25:59.624Z,1.10
2022-08-16T18:28:30.530Z,0.80
2022-08-16T18:31:01.066Z,0.70
2022-08-16T18:33:43.385Z,0.90
2022-08-16T18:36:21.049Z,1.35
2022-08-16T18:38:51.431Z,0.95
2022-08-16T18:41:23.143Z,1.55
2022-08-16T18:44:23.058Z,1.00
2022-08-16T18:46:44.539Z,1.00
2022-08-16T18:49:17.990Z,0.90
2022-08-16T18:51:47.577Z,0.90
2022-08-16T18:54:18.877Z,0.85
2022-08-16T18:56:55.269Z,0.90
2022-08-16T18:59:29.099Z,0.95
2022-08-16T19:02:04.982Z,1.00
2022-08-16T19:04:50.420Z,0.82
2022-08-16T19:07:30.933Z,0.82
2022-08-16T19:10:02.812Z,1.00
2022-08-16T19:12:38.071Z,1.40
2022-08-16T19:15:18.879Z,1.20
2022-08-16T19:17:48.606Z,0.90
2022-08-16T19:20:20.342Z,1.10
2022-08-16T19:23:09.965Z,0.90
2022-08-16T19:25:47.439Z,1.20
2022-08-16T19:28:50.755Z,1.35
2022-08-16T19:31:20.504Z,0.82
2022-08-16T19:33:54.943Z,0.80
2022-08-16T19:36:31.244Z,1.10
2022-08-16T19:39:05.788Z,1.10
2022-08-16T19:41:37.722Z,1.00
2022-08-16T19:44:07.785Z,1.17
2022-08-16T19:46:37.806Z,1.42
2022-08-16T19:49:07.409Z,0.80
2022-08-16T19:51:37.708Z,1.10
2022-08-16T19:54:07.293Z,1.05
2022-08-16T19:56:36.243Z,1.23
2022-08-16T19:59:22.219Z,1.30
2022-08-16T20:01:54.521Z,1.00
2022-08-16T20:04:25.350Z,1.20
2022-08-16T20:06:55.598Z,1.20
2022-08-16T20:09:25.682Z,1.15
2022-08-16T20:11:55.662Z,1.30
2022-08-16T20:14:26.434Z,1.10
2022-08-16T20:16:58.283Z,1.10
2022-08-16T20:19:35.193Z,1.10
2022-08-16T20:22:42.123Z,0.90
2022-08-16T20:25:12.223Z,1.13
2022-08-16T20:27:42.222Z,1.23
2022-08-16T20:30:14.906Z,1.05
2022-08-16T20:32:45.589Z,1.13
2022-08-16T20:35:17.745Z,0.90
2022-08-16T20:37:48.408Z,1.17
2022-08-16T20:40:33.786Z,0.90
2022-08-16T20:45:39.711Z,1.20
2022-08-16T20:48:09.335Z,1.40
2022-08-16T20:50:38.754Z,0.60
2022-08-16T20:53:08.649Z,1.38
2022-08-16T20:55:40.886Z,1.17
2022-08-16T20:58:10.093Z,1.00
2022-08-16T21:00:39.308Z,0.88
2022-08-16T21:03:09.946Z,1.10
2022-08-16T21:05:39.315Z,0.80
2022-08-16T21:08:50.024Z,1.10
2022-08-16T21:10:59.162Z,1.40
2022-08-16T21:13:31.989Z,1.20
2022-08-16T21:16:03.526Z,1.40
2022-08-16T21:18:32.701Z,1.38
2022-08-16T21:21:01.768Z,1.30
2022-08-16T21:23:30.997Z,1.60
2022-08-16T21:26:00.380Z,1.10
2022-08-16T21:28:38.764Z,2.20
2022-08-16T21:33:54.841Z,1.23
2022-08-16T21:36:34.879Z,1.50
2022-08-16T21:39:07.108Z,1.65
2022-08-16T21:41:38.833Z,1.50
2022-08-16T21:44:08.146Z,1.20
2022-08-16T21:46:37.116Z,1.38
2022-08-16T21:49:06.732Z,1.10
2022-08-16T21:51:37.117Z,1.52
2022-08-16T21:54:06.365Z,1.33
2022-08-16T21:56:35.420Z,1.25
2022-08-16T21:59:11.624Z,1.13
2022-08-16T22:01:42.975Z,1.50
2022-08-16T22:04:37.361Z,1.30
2022-08-16T22:07:02.516Z,1.35
2022-08-16T22:09:31.515Z,1.13
2022-08-16T22:12:00.747Z,1.02
2022-08-16T22:14:29.787Z,1.40
2022-08-16T22:16:59.085Z,1.40
2022-08-16T22:19:28.124Z,0.93
2022-08-16T22:21:57.237Z,1.20
2022-08-16T22:24:26.311Z,1.17
2022-08-16T22:26:55.508Z,1.00
2022-08-16T22:29:24.956Z,1.48
2022-08-16T22:31:54.054Z,0.90
2022-08-16T22:34:23.170Z,1.25
2022-08-16T22:36:52.472Z,1.00
2022-08-16T22:39:21.608Z,1.23
2022-08-16T22:41:51.346Z,1.13
2022-08-16T22:44:20.562Z,1.20
2022-08-16T22:46:50.035Z,1.50
2022-08-16T22:49:19.206Z,1.25
2022-08-16T22:51:48.544Z,1.00
2022-08-16T22:54:47.371Z,1.02
2022-08-16T22:57:06.888Z,1.13
2022-08-16T22:59:36.829Z,0.93
2022-08-16T23:02:08.202Z,0.90
2022-08-16T23:04:38.270Z,1.17
2022-08-16T23:07:07.578Z,1.10
2022-08-16T23:09:37.501Z,1.13
2022-08-16T23:12:08.304Z,1.20
2022-08-16T23:14:37.341Z,1.13
2022-08-16T23:17:06.530Z,1.10
2022-08-16T23:19:35.732Z,1.15
2022-08-16T23:22:05.227Z,1.10
2022-08-16T23:24:37.235Z,1.38
2022-08-16T23:27:23.926Z,1.10
2022-08-16T23:29:53.451Z,1.23
2022-08-16T23:32:22.451Z,1.65
2022-08-16T23:34:53.141Z,1.15
2022-08-16T23:37:23.486Z,1.27
2022-08-16T23:39:54.556Z,1.25
2022-08-16T23:42:41.847Z,1.10
2022-08-16T23:45:13.644Z,1.20
2022-08-16T23:47:42.758Z,1.05
2022-08-16T23:50:12.227Z,1.10
2022-08-16T23:53:08.589Z,1.10
2022-08-16T23:55:46.428Z,1.08
2022-08-16T23:58:18.202Z,1.58
